createdAt,value
2023-05-05T00:00:19.592Z,7.6308
2023-05-05T00:01:20.669Z,6.9385
2023-05-05T00:02:21.739Z,6.8231
2023-05-05T00:03:22.900Z,6.9462
2023-05-05T00:04:23.694Z,8.2538
2023-05-05T00:05:24.762Z,7.3615
2023-05-05T00:06:25.784Z,7.8692
2023-05-05T00:07:26.836Z,8.7308
2023-05-05T00:08:27.851Z,7.5000
2023-05-05T00:09:28.942Z,7.3000
2023-05-05T00:10:29.967Z,8.1846
2023-05-05T00:11:30.974Z,6.7231
2023-05-05T00:12:32.032Z,7.7385
2023-05-05T00:13:32.996Z,7.7923
2023-05-05T00:14:34.033Z,7.1846
2023-05-05T00:15:35.091Z,7.4538
2023-05-05T00:16:36.185Z,7.6154
2023-05-05T00:17:37.201Z,6.8385
2023-05-05T00:18:38.166Z,8.7385
2023-05-05T00:19:39.233Z,7.9538
2023-05-05T00:20:40.240Z,7.3846
2023-05-05T00:21:41.312Z,7.8154
2023-05-05T00:22:42.329Z,8.5538
2023-05-05T00:23:43.376Z,7.8538
2023-05-05T00:24:44.408Z,8.2231
2023-05-05T00:25:45.456Z,8.1538
2023-05-05T00:26:46.469Z,8.3923
2023-05-05T00:27:47.529Z,7.9846
2023-05-05T00:28:48.504Z,8.7538
2023-05-05T00:29:49.567Z,8.5308
2023-05-05T00:30:50.608Z,7.6692
2023-05-05T00:31:51.632Z,8.8231
2023-05-05T00:32:52.690Z,8.2846
2023-05-05T00:33:53.732Z,7.5538
2023-05-05T00:34:54.716Z,8.1385
2023-05-05T00:35:55.812Z,7.6692
2023-05-05T00:36:56.798Z,8.2462
2023-05-05T00:37:57.873Z,7.4769
2023-05-05T00:38:58.925Z,8.5923
2023-05-05T00:39:59.936Z,7.7923
2023-05-05T00:41:00.912Z,7.4692
2023-05-05T00:42:01.995Z,7.9462
2023-05-05T00:43:03.011Z,7.3000
2023-05-05T00:44:04.082Z,7.6154
2023-05-05T00:45:05.055Z,8.8538
2023-05-05T00:46:06.137Z,8.7077
2023-05-05T00:47:07.126Z,8.7231
2023-05-05T00:48:08.224Z,8.2308
2023-05-05T00:49:09.237Z,7.7923
2023-05-05T00:50:10.270Z,8.2923
2023-05-05T00:51:11.276Z,9.0077
2023-05-05T00:52:21.587Z,9.0455
2023-05-05T00:53:22.954Z,7.4000
2023-05-05T00:54:23.998Z,9.4000
2023-05-05T00:55:24.896Z,8.3385
2023-05-05T00:56:25.967Z,8.9077
2023-05-05T00:57:26.978Z,7.7308
2023-05-05T00:58:28.132Z,8.5538
2023-05-05T00:59:29.096Z,8.7077
2023-05-05T01:00:30.109Z,8.0846
2023-05-05T01:01:31.183Z,8.3846
2023-05-05T01:02:32.276Z,7.1000
2023-05-05T01:03:33.432Z,7.4846
2023-05-05T01:04:34.297Z,8.2769
2023-05-05T01:05:35.309Z,7.9385
2023-05-05T01:06:36.316Z,8.8077
2023-05-05T01:07:37.390Z,9.3231
2023-05-05T01:08:38.421Z,9.4769
2023-05-05T01:09:39.471Z,8.6385
2023-05-05T01:10:40.601Z,9.2462
2023-05-05T01:11:41.630Z,9.3308
2023-05-05T01:12:42.652Z,8.9231
2023-05-05T01:13:43.693Z,10.0923
2023-05-05T01:14:44.734Z,8.3154
2023-05-05T01:15:45.711Z,8.7769
2023-05-05T01:16:46.755Z,8.7615
2023-05-05T01:17:47.813Z,8.1846
2023-05-05T01:18:48.879Z,8.5923
2023-05-05T01:19:49.926Z,8.5462
2023-05-05T01:20:50.900Z,7.8462
2023-05-05T01:21:51.953Z,8.4462
2023-05-05T01:22:52.953Z,9.6077
2023-05-05T01:23:54.013Z,7.8077
2023-05-05T01:24:55.175Z,7.7308
2023-05-05T01:25:56.109Z,7.6615
2023-05-05T01:26:57.148Z,7.6692
2023-05-05T01:27:58.135Z,7.6692
2023-05-05T01:28:59.274Z,8.7000
2023-05-05T01:30:00.257Z,8.9538
2023-05-05T01:31:01.333Z,9.3077
2023-05-05T01:32:02.328Z,8.8769
2023-05-05T01:33:03.313Z,7.9231
2023-05-05T01:34:04.418Z,9.4692
2023-05-05T01:35:05.417Z,8.5000
2023-05-05T01:36:06.433Z,9.0000
2023-05-05T01:37:07.521Z,7.8769
2023-05-05T01:38:08.493Z,8.3692
2023-05-05T01:39:09.614Z,8.4692
2023-05-05T01:40:10.617Z,8.6308
2023-05-05T01:41:11.611Z,8.0846
2023-05-05T01:42:12.610Z,8.5538
2023-05-05T01:43:13.694Z,8.2462
2023-05-05T01:44:14.774Z,8.1308
2023-05-05T01:45:15.849Z,9.0846
2023-05-05T01:46:16.867Z,7.8231
2023-05-05T01:47:17.819Z,8.8538
2023-05-05T01:48:18.882Z,8.8385
2023-05-05T01:49:19.995Z,7.8462
2023-05-05T01:50:21.002Z,7.9154
2023-05-05T01:51:21.973Z,8.1846
2023-05-05T01:52:23.026Z,8.7154
2023-05-05T01:53:24.018Z,7.4538
2023-05-05T01:54:25.131Z,7.8846
2023-05-05T01:55:26.172Z,7.7154
2023-05-05T01:56:27.223Z,7.8231
2023-05-05T01:57:28.179Z,8.2462
2023-05-05T01:58:29.224Z,8.1000
2023-05-05T01:59:30.302Z,7.5923
2023-05-05T02:00:31.400Z,7.8769
2023-05-05T02:01:32.323Z,7.6077
2023-05-05T02:02:33.413Z,6.9154
2023-05-05T02:03:34.404Z,7.2692
2023-05-05T02:04:35.463Z,7.0769
2023-05-05T02:05:36.490Z,7.0385
2023-05-05T02:06:37.491Z,6.8231
2023-05-05T02:07:38.550Z,7.9923
2023-05-05T02:08:39.579Z,7.5077
2023-05-05T02:09:40.677Z,7.8308
2023-05-05T02:10:41.706Z,7.3000
2023-05-05T02:11:42.665Z,6.9154
2023-05-05T02:12:43.720Z,7.0000
2023-05-05T02:13:44.893Z,7.0846
2023-05-05T02:14:45.909Z,6.5462
2023-05-05T02:15:46.959Z,6.2462
2023-05-05T02:16:47.868Z,6.1077
2023-05-05T02:17:48.928Z,7.3154
2023-05-05T02:18:49.953Z,7.7923
2023-05-05T02:19:51.035Z,6.9308
2023-05-05T02:20:52.080Z,6.6692
2023-05-05T02:21:53.073Z,6.7231
2023-05-05T02:22:54.132Z,7.2077
2023-05-05T02:23:55.115Z,6.6769
2023-05-05T02:24:56.233Z,6.0154
2023-05-05T02:25:57.233Z,6.5154
2023-05-05T02:26:58.219Z,6.8308
2023-05-05T02:27:59.295Z,6.5769
2023-05-05T02:29:00.298Z,6.4385
2023-05-05T02:30:01.400Z,6.4538
2023-05-05T02:31:02.466Z,7.0769
2023-05-05T02:32:03.338Z,6.2923
2023-05-05T02:33:04.513Z,6.1615
2023-05-05T02:34:05.473Z,5.8846
2023-05-05T02:35:06.620Z,6.5385
2023-05-05T02:36:07.623Z,6.6000
2023-05-05T02:37:08.573Z,6.2154
2023-05-05T02:38:09.627Z,6.1538
2023-05-05T02:39:10.660Z,5.9231
2023-05-05T02:40:11.786Z,6.1923
2023-05-05T02:41:12.797Z,6.8154
2023-05-05T02:42:13.793Z,5.6154
2023-05-05T02:43:14.823Z,6.3231
2023-05-05T02:44:15.841Z,7.0769
2023-05-05T02:45:16.914Z,6.5769
2023-05-05T02:46:18.011Z,6.6692
2023-05-05T02:47:18.949Z,6.8462
2023-05-05T02:48:20.080Z,6.8615
2023-05-05T02:49:21.016Z,6.7923
2023-05-05T02:50:22.185Z,7.4308
2023-05-05T02:51:23.131Z,7.0462
2023-05-05T02:52:24.218Z,6.9538
2023-05-05T02:53:25.135Z,7.0385
2023-05-05T02:54:26.233Z,6.8692
2023-05-05T02:55:27.276Z,7.9769
2023-05-05T02:56:28.354Z,7.6154
2023-05-05T02:57:29.309Z,7.3769
2023-05-05T02:58:30.351Z,7.8615
2023-05-05T02:59:31.373Z,6.6000
2023-05-05T03:00:32.456Z,7.2538
2023-05-05T03:01:33.525Z,7.5923
2023-05-05T03:02:34.518Z,7.0615
2023-05-05T03:03:35.609Z,6.9846
2023-05-05T03:04:36.566Z,7.0692
2023-05-05T03:05:37.692Z,7.3308
2023-05-05T03:06:38.654Z,7.6846
2023-05-05T03:07:39.653Z,7.4769
2023-05-05T03:08:40.774Z,7.4154
2023-05-05T03:09:41.712Z,6.8692
2023-05-05T03:10:42.815Z,6.8692
2023-05-05T03:11:43.867Z,7.0231
2023-05-05T03:12:44.895Z,7.1308
2023-05-05T03:13:45.914Z,7.4231
2023-05-05T03:14:46.898Z,7.4846
2023-05-05T03:15:47.996Z,7.7077
2023-05-05T03:16:49.015Z,7.3154
2023-05-05T03:17:50.021Z,7.4462
2023-05-05T03:18:51.102Z,7.9769
2023-05-05T03:19:52.080Z,8.4308
2023-05-05T03:20:53.134Z,7.5769
2023-05-05T03:21:54.275Z,7.7462
2023-05-05T03:22:55.241Z,7.7538
2023-05-05T03:23:56.293Z,6.8000
2023-05-05T03:24:57.295Z,6.7385
2023-05-05T03:25:58.336Z,6.9615
2023-05-05T03:26:59.378Z,8.0385
2023-05-05T03:28:00.352Z,6.8538
2023-05-05T03:29:01.370Z,7.6462
2023-05-05T03:30:02.448Z,6.6077
2023-05-05T03:31:03.495Z,7.0692
2023-05-05T03:32:04.656Z,7.0769
2023-05-05T03:33:05.565Z,6.2538
2023-05-05T03:34:06.575Z,6.6923
2023-05-05T03:35:07.587Z,6.6692
2023-05-05T03:36:08.675Z,6.6385
2023-05-05T03:37:09.782Z,7.2692
2023-05-05T03:38:10.771Z,6.4538
2023-05-05T03:39:11.741Z,6.8846
2023-05-05T03:40:12.783Z,6.3231
2023-05-05T03:41:13.851Z,6.0385
2023-05-05T03:42:14.931Z,6.7923
2023-05-05T03:43:15.848Z,6.3769
2023-05-05T03:44:16.953Z,6.8615
2023-05-05T03:45:17.991Z,8.3000
2023-05-05T03:46:19.139Z,6.5462
2023-05-05T03:47:20.081Z,6.8000
2023-05-05T03:48:21.033Z,6.3385
2023-05-05T03:49:22.063Z,7.0154
2023-05-05T03:50:23.185Z,6.8615
2023-05-05T03:51:24.172Z,6.5308
2023-05-05T03:52:25.208Z,6.2154
2023-05-05T03:53:26.172Z,6.9615
2023-05-05T03:54:27.230Z,6.6615
2023-05-05T03:55:28.337Z,6.7077
2023-05-05T03:56:29.428Z,6.8923
2023-05-05T03:57:30.431Z,6.2385
2023-05-05T03:58:31.391Z,7.0615
2023-05-05T03:59:32.443Z,8.7769
2023-05-05T04:00:33.453Z,9.4846
2023-05-05T04:01:34.537Z,10.8385
2023-05-05T04:02:35.627Z,10.9846
2023-05-05T04:03:36.657Z,11.1077
2023-05-05T04:04:37.618Z,13.5231
2023-05-05T04:05:38.628Z,12.8154
2023-05-05T04:06:39.757Z,11.2385
2023-05-05T04:07:40.739Z,12.5231
2023-05-05T04:08:41.790Z,12.5077
2023-05-05T04:09:42.793Z,9.2231
2023-05-05T04:10:43.836Z,8.3462
2023-05-05T04:11:44.947Z,9.0538
2023-05-05T04:12:46.003Z,9.7615
2023-05-05T04:13:46.959Z,8.5692
2023-05-05T04:14:48.000Z,8.2923
2023-05-05T04:15:49.050Z,8.3923
2023-05-05T04:16:50.097Z,8.0923
2023-05-05T04:17:51.194Z,8.0538
2023-05-05T04:18:52.157Z,8.1692
2023-05-05T04:19:53.137Z,7.4385
2023-05-05T04:20:54.219Z,9.1308
2023-05-05T04:21:55.281Z,9.5692
2023-05-05T04:22:56.389Z,7.0769
2023-05-05T04:23:57.287Z,7.1769
2023-05-05T04:24:58.353Z,7.9154
2023-05-05T04:25:59.353Z,7.3769
2023-05-05T04:27:00.505Z,7.8154
2023-05-05T04:28:01.605Z,7.4385
2023-05-05T04:29:02.526Z,7.6385
2023-05-05T04:30:03.515Z,6.8615
2023-05-05T04:31:04.563Z,6.7846
2023-05-05T04:32:05.651Z,6.8231
2023-05-05T04:33:06.674Z,6.8000
2023-05-05T04:34:07.672Z,7.3077
2023-05-05T04:35:08.684Z,7.3615
2023-05-05T04:36:09.735Z,6.9154
2023-05-05T04:37:10.853Z,8.6538
2023-05-05T04:38:11.870Z,7.9308
2023-05-05T04:39:12.837Z,7.6923
2023-05-05T04:40:13.902Z,6.4923
2023-05-05T04:41:14.939Z,7.1077
2023-05-05T04:42:15.995Z,7.7846
2023-05-05T04:43:17.007Z,7.7231
2023-05-05T04:44:17.976Z,8.1462
2023-05-05T04:45:19.072Z,9.3000
2023-05-05T04:46:20.200Z,7.6538
2023-05-05T04:47:21.172Z,9.7077
2023-05-05T04:48:22.194Z,10.1538
2023-05-05T04:49:23.201Z,8.8000
2023-05-05T04:50:24.205Z,8.9154
2023-05-05T04:51:25.248Z,8.1538
2023-05-05T04:52:26.334Z,8.8538
2023-05-05T04:53:27.401Z,8.4462
2023-05-05T04:54:28.407Z,8.3615
2023-05-05T04:55:29.399Z,7.5077
2023-05-05T04:56:30.447Z,8.2538
2023-05-05T04:57:31.518Z,7.8538
2023-05-05T04:58:32.562Z,7.9077
2023-05-05T04:59:33.558Z,7.8538
2023-05-05T05:00:34.622Z,7.3538
2023-05-05T05:01:37.730Z,6.6308
2023-05-05T05:02:36.727Z,7.3846
2023-05-05T05:03:39.156Z,6.6462
2023-05-05T05:04:38.765Z,8.0615
2023-05-05T05:05:39.757Z,6.6385
2023-05-05T05:06:40.797Z,7.1692
2023-05-05T05:07:41.878Z,7.2692
2023-05-05T05:08:42.910Z,7.6077
2023-05-05T05:09:43.956Z,8.7923
2023-05-05T05:10:44.999Z,8.1615
2023-05-05T05:11:46.030Z,7.5538
2023-05-05T05:12:47.032Z,7.8385
2023-05-05T05:13:48.062Z,9.1385
2023-05-05T05:14:49.067Z,8.0692
2023-05-05T05:15:50.107Z,11.0846
2023-05-05T05:16:51.225Z,10.1923
2023-05-05T05:17:52.181Z,9.8769
2023-05-05T05:18:53.213Z,8.0000
2023-05-05T05:19:54.245Z,7.6462
2023-05-05T05:20:55.245Z,7.3231
2023-05-05T05:21:56.289Z,8.2462
2023-05-05T05:22:57.373Z,8.3231
2023-05-05T05:23:58.402Z,7.6385
2023-05-05T05:24:59.408Z,8.7846
2023-05-05T05:26:00.421Z,11.3154
2023-05-05T05:27:01.452Z,9.5231
2023-05-05T05:28:10.164Z,8.6385
2023-05-05T05:29:03.630Z,11.0385
2023-05-05T05:30:04.592Z,9.7692
2023-05-05T05:31:05.606Z,10.8692
2023-05-05T05:32:06.814Z,9.4000
2023-05-05T05:33:07.855Z,9.6846
2023-05-05T05:34:09.767Z,12.0923
2023-05-05T05:35:09.769Z,10.8462
2023-05-05T05:36:10.803Z,11.0615
2023-05-05T05:37:11.843Z,10.3462
2023-05-05T05:38:12.918Z,10.1846
2023-05-05T05:39:14.104Z,11.9846
2023-05-05T05:40:14.945Z,11.9231
2023-05-05T05:41:15.963Z,12.5385
2023-05-05T05:42:17.018Z,14.2077
2023-05-05T05:43:18.055Z,13.0923
2023-05-05T05:44:19.194Z,13.9462
2023-05-05T05:45:20.115Z,11.3846
2023-05-05T05:46:21.217Z,11.0769
2023-05-05T05:47:22.182Z,12.9462
2023-05-05T05:48:23.270Z,11.6154
2023-05-05T05:49:24.338Z,12.6231
2023-05-05T05:50:25.323Z,11.5385
2023-05-05T05:51:26.322Z,10.9615
2023-05-05T05:52:27.383Z,11.9154
2023-05-05T05:53:28.430Z,10.9692
2023-05-05T05:54:29.443Z,10.9692
2023-05-05T05:55:30.513Z,9.8846
2023-05-05T05:56:31.533Z,10.6000
2023-05-05T05:57:32.563Z,10.6231
2023-05-05T05:58:33.587Z,9.0923
2023-05-05T05:59:34.658Z,8.6692
2023-05-05T06:00:35.616Z,9.3308
2023-05-05T06:01:36.694Z,9.7000
2023-05-05T06:02:37.791Z,9.3077
2023-05-05T06:03:38.869Z,9.3462
2023-05-05T06:04:39.880Z,9.3462
2023-05-05T06:05:40.844Z,10.1692
2023-05-05T06:06:41.824Z,12.0154
2023-05-05T06:07:42.927Z,11.2923
2023-05-05T06:08:43.950Z,10.3692
2023-05-05T06:09:44.984Z,12.9154
2023-05-05T06:10:46.001Z,10.7000
2023-05-05T06:11:47.036Z,26.4769
2023-05-05T06:12:48.084Z,30.3000
2023-05-05T06:13:49.083Z,68.9846
2023-05-05T06:14:50.154Z,29.9692
2023-05-05T06:15:51.240Z,10.5308
2023-05-05T06:16:52.228Z,9.1923
2023-05-05T06:17:53.311Z,10.7231
2023-05-05T06:18:54.284Z,11.3462
2023-05-05T06:19:55.354Z,9.8846
2023-05-05T06:20:56.361Z,10.6923
2023-05-05T06:21:57.419Z,9.3923
2023-05-05T06:22:58.452Z,8.3769
2023-05-05T06:23:59.475Z,8.6000
2023-05-05T06:25:00.502Z,9.1615
2023-05-05T06:26:01.604Z,7.1769
2023-05-05T06:27:02.600Z,6.4462
2023-05-05T06:28:03.611Z,7.9000
2023-05-05T06:29:04.614Z,8.8692
2023-05-05T06:30:05.937Z,8.3000
2023-05-05T06:31:06.747Z,7.0538
2023-05-05T06:32:07.784Z,7.5923
2023-05-05T06:33:08.820Z,7.4308
2023-05-05T06:34:09.782Z,7.7538
2023-05-05T06:35:10.854Z,7.5231
2023-05-05T06:36:11.916Z,7.7308
2023-05-05T06:37:12.923Z,7.5308
2023-05-05T06:38:14.148Z,7.6846
2023-05-05T06:39:16.169Z,7.3000
2023-05-05T06:40:16.125Z,21.8923
2023-05-05T06:41:17.148Z,62.7231
2023-05-05T06:42:18.230Z,30.2231
2023-05-05T06:43:19.265Z,10.1385
2023-05-05T06:44:20.302Z,7.2692
2023-05-05T06:45:21.287Z,10.6000
2023-05-05T06:46:22.407Z,16.4308
2023-05-05T06:47:23.404Z,13.8000
2023-05-05T06:48:24.447Z,16.9846
2023-05-05T06:49:25.464Z,12.6077
2023-05-05T06:50:26.463Z,9.3692
2023-05-05T06:51:27.502Z,10.3308
2023-05-05T06:52:28.614Z,11.1615
2023-05-05T06:53:29.576Z,22.7231
2023-05-05T06:54:30.593Z,12.6692
2023-05-05T06:55:31.731Z,9.4231
2023-05-05T06:56:32.701Z,11.9615
2023-05-05T06:57:33.746Z,12.4231
2023-05-05T06:58:34.841Z,8.8308
2023-05-05T06:59:35.791Z,9.4615
2023-05-05T07:00:36.894Z,13.2769
2023-05-05T07:01:37.858Z,22.2846
2023-05-05T07:02:39.055Z,8.0308
2023-05-05T07:03:40.020Z,6.3231
2023-05-05T07:04:41.096Z,6.8846
2023-05-05T07:05:42.007Z,6.3462
2023-05-05T07:06:43.140Z,7.5231
2023-05-05T07:07:44.114Z,6.4923
2023-05-05T07:08:45.226Z,7.7154
2023-05-05T07:09:46.195Z,5.7769
2023-05-05T07:10:47.328Z,7.7154
2023-05-05T07:11:48.268Z,7.7462
2023-05-05T07:12:49.387Z,6.6538
2023-05-05T07:13:50.371Z,6.1077
2023-05-05T07:14:51.417Z,6.3923
2023-05-05T07:15:52.390Z,7.1615
2023-05-05T07:16:53.590Z,5.9538
2023-05-05T07:17:54.547Z,5.9231
2023-05-05T07:18:55.538Z,6.6923
2023-05-05T07:19:56.579Z,6.1077
2023-05-05T07:20:57.542Z,5.8846
2023-05-05T07:21:58.596Z,6.9154
2023-05-05T07:22:59.621Z,6.9154
2023-05-05T07:24:00.714Z,8.1538
2023-05-05T07:25:01.707Z,8.7077
2023-05-05T07:26:02.850Z,7.3615
2023-05-05T07:27:03.740Z,6.8385
2023-05-05T07:28:04.841Z,6.8769
2023-05-05T07:29:05.873Z,6.5000
2023-05-05T07:30:11.211Z,6.7615
2023-05-05T07:31:07.889Z,8.4308
2023-05-05T07:32:09.024Z,6.2231
2023-05-05T07:33:10.087Z,6.7154
2023-05-05T07:34:11.058Z,7.3846
2023-05-05T07:35:12.127Z,6.9462
2023-05-05T07:36:13.151Z,6.5462
2023-05-05T07:37:14.106Z,6.6308
2023-05-05T07:38:15.165Z,6.8077
2023-05-05T07:39:16.223Z,6.8462
2023-05-05T07:40:17.279Z,5.8231
2023-05-05T07:41:18.299Z,5.6000
2023-05-05T07:42:19.316Z,6.5154
2023-05-05T07:43:20.318Z,5.4385
2023-05-05T07:44:21.459Z,5.2615
2023-05-05T07:45:22.424Z,5.2385
2023-05-05T07:46:23.467Z,5.1154
2023-05-05T07:47:24.542Z,8.0385
2023-05-05T07:48:25.566Z,9.1692
2023-05-05T07:49:26.569Z,7.2846
2023-05-05T07:50:27.627Z,5.9385
2023-05-05T07:51:28.594Z,6.6385
2023-05-05T07:52:44.223Z,5.2615
2023-05-05T07:53:30.666Z,5.9308
2023-05-05T07:54:31.799Z,5.4769
2023-05-05T07:55:32.752Z,5.1769
2023-05-05T07:56:33.856Z,5.8077
2023-05-05T07:57:34.796Z,6.2385
2023-05-05T07:58:35.865Z,7.0538
2023-05-05T07:59:36.914Z,6.6154
2023-05-05T08:00:37.981Z,5.6385
2023-05-05T08:01:38.930Z,6.2538
2023-05-05T08:02:40.067Z,7.2923
2023-05-05T08:03:41.076Z,5.7077
2023-05-05T08:04:42.306Z,6.4692
2023-05-05T08:05:43.187Z,7.2077
2023-05-05T08:06:44.194Z,5.2692
2023-05-05T08:07:45.189Z,5.4462
2023-05-05T08:08:46.166Z,5.4231
2023-05-05T08:09:47.285Z,6.3385
2023-05-05T08:10:48.318Z,6.1000
2023-05-05T08:11:49.365Z,6.4077
2023-05-05T08:12:50.322Z,5.8077
2023-05-05T08:13:51.447Z,5.1846
2023-05-05T08:14:52.418Z,5.5077
2023-05-05T08:15:53.542Z,6.0923
2023-05-05T08:16:54.472Z,5.8000
2023-05-05T08:17:55.582Z,5.0385
2023-05-05T08:18:56.539Z,4.9538
2023-05-05T08:19:57.620Z,5.7769
2023-05-05T08:20:58.652Z,5.3769
2023-05-05T08:22:01.374Z,8.9154
2023-05-05T08:23:00.686Z,13.7231
2023-05-05T08:24:01.732Z,6.5154
2023-05-05T08:25:02.782Z,6.5462
2023-05-05T08:26:03.887Z,6.8231
2023-05-05T08:27:04.872Z,5.9615
2023-05-05T08:28:05.866Z,6.3846
2023-05-05T08:29:06.872Z,5.8769
2023-05-05T08:30:07.981Z,5.6538
2023-05-05T08:31:09.011Z,6.1615
2023-05-05T08:32:10.020Z,6.0615
2023-05-05T08:33:11.094Z,6.3154
2023-05-05T08:34:12.088Z,8.0769
2023-05-05T08:35:13.359Z,8.9231
2023-05-05T08:36:14.185Z,9.1462
2023-05-05T08:37:15.206Z,7.2692
2023-05-05T08:38:16.223Z,7.3000
2023-05-05T08:39:17.316Z,5.4769
2023-05-05T08:40:18.321Z,5.5769
2023-05-05T08:41:19.345Z,6.8692
2023-05-05T08:42:35.605Z,6.0154
2023-05-05T08:43:21.331Z,6.3308
2023-05-05T08:44:22.401Z,7.9923
2023-05-05T08:45:23.481Z,6.1846
2023-05-05T08:46:24.523Z,7.3538
2023-05-05T08:47:25.527Z,6.4692
2023-05-05T08:48:26.596Z,6.3385
2023-05-05T08:49:27.536Z,7.2000
2023-05-05T08:50:28.647Z,6.8692
2023-05-05T08:51:29.674Z,7.8077
2023-05-05T08:52:30.741Z,6.5385
2023-05-05T08:53:31.716Z,6.8692
2023-05-05T08:54:32.738Z,6.7692
2023-05-05T08:55:33.794Z,6.3615
2023-05-05T08:56:34.847Z,7.4077
2023-05-05T08:57:35.917Z,6.7385
2023-05-05T08:58:36.910Z,6.4231
2023-05-05T08:59:37.908Z,7.4308
2023-05-05T09:00:39.028Z,6.1923
2023-05-05T09:01:40.042Z,6.0231
2023-05-05T09:02:41.105Z,5.4846
2023-05-05T09:03:42.311Z,6.2692
2023-05-05T09:04:43.093Z,6.5308
2023-05-05T09:05:44.151Z,7.4923
2023-05-05T09:06:45.234Z,5.7077
2023-05-05T09:07:46.233Z,7.3923
2023-05-05T09:08:47.235Z,7.7846
2023-05-05T09:09:48.246Z,6.8077
2023-05-05T09:10:49.435Z,6.6923
2023-05-05T09:11:50.447Z,6.5769
2023-05-05T09:12:51.702Z,6.4846
2023-05-05T09:13:52.469Z,5.7923
2023-05-05T09:14:53.552Z,12.6077
2023-05-05T09:15:54.565Z,7.5538
2023-05-05T09:16:55.601Z,7.8308
2023-05-05T09:17:56.636Z,7.5308
2023-05-05T09:18:57.654Z,6.5231
2023-05-05T09:19:58.672Z,7.7000
2023-05-05T09:20:59.826Z,6.3308
2023-05-05T09:22:00.804Z,6.3692
2023-05-05T09:23:01.790Z,5.6615
2023-05-05T09:24:07.824Z,6.4231
2023-05-05T09:25:03.902Z,7.3462
2023-05-05T09:26:04.954Z,5.9077
2023-05-05T09:27:05.976Z,7.4462
2023-05-05T09:28:07.008Z,6.8308
2023-05-05T09:29:08.006Z,6.6231
2023-05-05T09:30:09.037Z,6.3385
2023-05-05T09:31:10.149Z,6.1769
2023-05-05T09:32:11.241Z,6.7308
2023-05-05T09:33:12.177Z,5.2385
2023-05-05T09:34:13.185Z,5.5692
2023-05-05T09:35:14.253Z,7.1000
2023-05-05T09:36:15.280Z,5.9462
2023-05-05T09:37:16.285Z,13.9462
2023-05-05T09:38:17.338Z,7.4615
2023-05-05T09:39:18.346Z,6.6231
2023-05-05T09:40:19.533Z,7.2538
2023-05-05T09:41:20.441Z,5.4385
2023-05-05T09:42:21.540Z,7.0846
2023-05-05T09:43:22.496Z,7.1846
2023-05-05T09:44:23.497Z,5.8846
2023-05-05T09:45:24.516Z,6.6692
2023-05-05T09:46:25.726Z,6.7077
2023-05-05T09:47:29.904Z,7.9769
2023-05-05T09:48:27.736Z,6.8615
2023-05-05T09:49:28.653Z,7.1615
2023-05-05T09:50:29.730Z,7.2692
2023-05-05T09:51:30.753Z,6.6385
2023-05-05T09:52:31.831Z,6.4846
2023-05-05T09:53:32.797Z,6.8154
2023-05-05T09:54:33.835Z,7.1923
2023-05-05T09:55:34.826Z,8.0308
2023-05-05T09:56:35.966Z,7.8846
2023-05-05T09:57:37.011Z,7.5923
2023-05-05T09:58:38.077Z,6.9000
2023-05-05T09:59:38.986Z,7.6154
2023-05-05T10:00:40.009Z,8.0308
2023-05-05T10:01:41.115Z,7.5077
2023-05-05T10:02:42.242Z,6.9308
2023-05-05T10:03:43.105Z,6.3615
2023-05-05T10:04:44.158Z,7.0462
2023-05-05T10:05:45.157Z,6.9462
2023-05-05T10:06:46.263Z,7.5385
2023-05-05T10:07:47.321Z,7.0308
2023-05-05T10:08:48.285Z,7.1000
2023-05-05T10:09:49.329Z,6.4846
2023-05-05T10:10:50.326Z,6.9538
2023-05-05T10:11:51.442Z,6.1462
2023-05-05T10:12:52.496Z,6.5154
2023-05-05T10:13:53.479Z,6.9000
2023-05-05T10:14:54.434Z,7.0923
2023-05-05T10:15:55.518Z,6.5462
2023-05-05T10:16:56.593Z,8.4923
2023-05-05T10:18:06.893Z,8.0846
2023-05-05T10:18:58.591Z,6.0462
2023-05-05T10:19:59.640Z,6.4692
2023-05-05T10:21:00.662Z,6.4769
2023-05-05T10:22:01.740Z,6.6923
2023-05-05T10:23:02.715Z,7.0000
2023-05-05T10:24:03.661Z,7.3923
2023-05-05T10:25:04.724Z,7.3538
2023-05-05T10:26:05.725Z,7.1000
2023-05-05T10:27:06.808Z,6.7231
2023-05-05T10:28:07.843Z,6.6846
2023-05-05T10:29:08.868Z,7.2231
2023-05-05T10:30:10.110Z,6.9769
2023-05-05T10:31:24.587Z,7.3923
2023-05-05T10:32:33.545Z,6.2462
2023-05-05T10:33:30.212Z,6.8385
2023-05-05T10:34:14.107Z,7.2077
2023-05-05T10:35:15.074Z,7.5308
2023-05-05T10:36:16.136Z,8.8615
2023-05-05T10:37:17.125Z,7.3846
2023-05-05T10:38:18.160Z,8.4000
2023-05-05T10:39:19.336Z,6.7385
2023-05-05T10:40:20.377Z,6.9615
2023-05-05T10:41:21.334Z,7.5077
2023-05-05T10:42:22.424Z,6.9385
2023-05-05T10:43:23.540Z,9.2154
2023-05-05T10:44:24.572Z,7.8231
2023-05-05T10:45:25.627Z,6.6308
2023-05-05T10:46:26.770Z,7.6308
2023-05-05T10:47:27.590Z,7.0462
2023-05-05T10:48:28.700Z,7.7769
2023-05-05T10:49:29.734Z,7.4538
2023-05-05T10:50:30.780Z,6.9615
2023-05-05T10:51:40.459Z,7.3000
2023-05-05T10:52:32.789Z,6.9923
2023-05-05T10:53:33.825Z,6.4538
2023-05-05T10:54:37.173Z,7.8538
2023-05-05T10:55:35.879Z,6.7846
2023-05-05T10:56:36.940Z,6.3692
2023-05-05T10:57:37.976Z,7.7308
2023-05-05T10:58:47.477Z,7.5615
2023-05-05T10:59:40.181Z,7.3385
2023-05-05T11:00:41.077Z,8.1077
2023-05-05T11:01:42.145Z,7.4231
2023-05-05T11:02:43.212Z,7.0154
2023-05-05T11:03:44.206Z,7.6154
2023-05-05T11:04:45.237Z,6.2462
2023-05-05T11:05:46.195Z,6.4154
2023-05-05T11:06:47.300Z,6.8846
2023-05-05T11:07:48.282Z,7.0615
2023-05-05T11:08:49.354Z,6.8308
2023-05-05T11:09:50.479Z,7.2231
2023-05-05T11:10:51.420Z,6.6308
2023-05-05T11:11:52.446Z,7.0385
2023-05-05T11:12:53.521Z,9.2923
2023-05-05T11:13:54.530Z,13.5615
2023-05-05T11:14:55.621Z,9.3308
2023-05-05T11:15:56.536Z,7.4231
2023-05-05T11:16:57.640Z,6.9923
2023-05-05T11:17:58.675Z,6.4154
2023-05-05T11:18:59.747Z,6.2231
2023-05-05T11:20:00.753Z,6.1692
2023-05-05T11:21:01.798Z,6.6923
2023-05-05T11:22:02.772Z,6.9308
2023-05-05T11:23:03.829Z,6.7615
2023-05-05T11:24:04.884Z,6.2615
2023-05-05T11:25:05.917Z,6.0923
2023-05-05T11:26:06.969Z,7.6000
2023-05-05T11:27:07.891Z,7.3077
2023-05-05T11:28:09.065Z,6.1692
2023-05-05T11:29:10.046Z,6.3538
2023-05-05T11:30:11.343Z,6.6385
2023-05-05T11:31:12.077Z,7.0385
2023-05-05T11:32:13.106Z,7.9538
2023-05-05T11:33:14.091Z,8.8462
2023-05-05T11:34:15.193Z,10.9231
2023-05-05T11:35:16.242Z,7.6385
2023-05-05T11:36:17.294Z,8.0154
2023-05-05T11:37:18.235Z,9.2231
2023-05-05T11:38:19.302Z,8.2923
2023-05-05T11:39:20.340Z,13.6154
2023-05-05T11:40:21.399Z,17.9308
2023-05-05T11:41:22.360Z,7.5769
2023-05-05T11:42:23.434Z,6.4769
2023-05-05T11:43:24.476Z,9.1231
2023-05-05T11:44:25.526Z,8.7538
2023-05-05T11:45:26.669Z,7.3769
2023-05-05T11:46:27.593Z,8.6538
2023-05-05T11:47:28.602Z,7.8692
2023-05-05T11:48:29.632Z,6.6692
2023-05-05T11:49:30.720Z,7.7308
2023-05-05T11:50:31.715Z,6.6077
2023-05-05T11:51:32.688Z,6.5846
2023-05-05T11:52:33.768Z,5.7154
2023-05-05T11:53:34.781Z,6.4846
2023-05-05T11:54:35.856Z,8.3769
2023-05-05T11:55:36.907Z,8.2462
2023-05-05T11:56:37.868Z,7.0923
2023-05-05T11:57:38.859Z,7.9308
2023-05-05T11:58:39.925Z,6.1692
2023-05-05T11:59:40.979Z,7.0846
2023-05-05T12:00:42.034Z,6.4154
2023-05-05T12:01:43.006Z,6.4462
2023-05-05T12:02:44.192Z,6.3923
2023-05-05T12:03:45.289Z,5.5923
2023-05-05T12:04:46.197Z,5.4000
2023-05-05T12:05:47.156Z,5.4615
2023-05-05T12:06:48.166Z,6.3538
2023-05-05T12:07:49.215Z,7.1000
2023-05-05T12:08:50.277Z,7.4692
2023-05-05T12:09:51.352Z,6.5385
2023-05-05T12:10:52.356Z,9.1769
2023-05-05T12:11:53.337Z,6.2154
2023-05-05T12:12:55.521Z,5.5308
2023-05-05T12:13:55.379Z,9.2538
2023-05-05T12:14:56.452Z,6.0462
2023-05-05T12:15:57.643Z,6.2692
2023-05-05T12:16:58.610Z,6.6923
2023-05-05T12:18:02.111Z,7.4692
2023-05-05T12:19:00.571Z,6.7846
2023-05-05T12:20:01.621Z,6.8231
2023-05-05T12:21:02.690Z,7.1615
2023-05-05T12:22:03.689Z,7.3000
2023-05-05T12:23:04.806Z,9.5538
2023-05-05T12:24:05.729Z,7.1077
2023-05-05T12:25:06.813Z,8.2231
2023-05-05T12:26:07.881Z,6.4538
2023-05-05T12:27:08.857Z,6.4462
2023-05-05T12:28:09.952Z,8.3000
2023-05-05T12:29:10.976Z,5.8846
2023-05-05T12:30:12.009Z,5.3538
2023-05-05T12:31:13.212Z,6.5308
2023-05-05T12:32:14.179Z,9.6154
2023-05-05T12:33:14.983Z,7.5538
2023-05-05T12:34:15.982Z,6.1692
2023-05-05T12:35:17.179Z,6.5231
2023-05-05T12:36:18.180Z,6.4462
2023-05-05T12:37:19.288Z,7.5231
2023-05-05T12:38:20.215Z,7.3615
2023-05-05T12:39:21.290Z,6.1077